sensor_id;sensor_type;location;lat;lon;timestamp;temperature;humidity
25616;DHT22;13482;48.234;13.006;2022-12-18T00:01:33;0.30;73.70
25616;DHT22;13482;48.234;13.006;2022-12-18T00:04:03;0.40;73.70
25616;DHT22;13482;48.234;13.006;2022-12-18T00:06:34;0.40;73.70
25616;DHT22;13482;48.234;13.006;2022-12-18T00:09:03;0.30;73.60
25616;DHT22;13482;48.234;13.006;2022-12-18T00:11:31;0.30;73.60
25616;DHT22;13482;48.234;13.006;2022-12-18T00:13:59;0.30;73.60
25616;DHT22;13482;48.234;13.006;2022-12-18T00:16:28;0.30;73.60
25616;DHT22;13482;48.234;13.006;2022-12-18T00:18:57;0.30;73.60
25616;DHT22;13482;48.234;13.006;2022-12-18T00:21:24;0.20;73.60
25616;DHT22;13482;48.234;13.006;2022-12-18T00:23:52;0.20;73.60
25616;DHT22;13482;48.234;13.006;2022-12-18T00:26:28;0.20;73.70
25616;DHT22;13482;48.234;13.006;2022-12-18T00:28:59;0.20;73.70
25616;DHT22;13482;48.234;13.006;2022-12-18T00:31:28;0.20;73.70
25616;DHT22;13482;48.234;13.006;2022-12-18T00:33:56;0.20;73.70
25616;DHT22;13482;48.234;13.006;2022-12-18T00:36:26;0.20;73.70
25616;DHT22;13482;48.234;13.006;2022-12-18T00:38:57;0.20;73.70
25616;DHT22;13482;48.234;13.006;2022-12-18T00:41:26;0.20;73.70
25616;DHT22;13482;48.234;13.006;2022-12-18T00:44:15;0.20;73.70
25616;DHT22;13482;48.234;13.006;2022-12-18T00:46:43;0.20;73.70
25616;DHT22;13482;48.234;13.006;2022-12-18T00:49:11;0.20;73.80
25616;DHT22;13482;48.234;13.006;2022-12-18T00:51:39;0.20;73.70
25616;DHT22;13482;48.234;13.006;2022-12-18T00:54:06;0.10;73.70
25616;DHT22;13482;48.234;13.006;2022-12-18T00:56:36;0.10;73.60
25616;DHT22;13482;48.234;13.006;2022-12-18T00:59:14;0.10;73.60
25616;DHT22;13482;48.234;13.006;2022-12-18T01:01:41;0.10;73.60
25616;DHT22;13482;48.234;13.006;2022-12-18T01:04:09;0.00;73.50
25616;DHT22;13482;48.234;13.006;2022-12-18T01:06:36;0.00;73.60
25616;DHT22;13482;48.234;13.006;2022-12-18T01:09:03;0.00;73.60
25616;DHT22;13482;48.234;13.006;2022-12-18T01:11:31;0.00;73.60
25616;DHT22;13482;48.234;13.006;2022-12-18T01:13:58;0.00;73.60
25616;DHT22;13482;48.234;13.006;2022-12-18T01:16:26;-0.10;73.60
25616;DHT22;13482;48.234;13.006;2022-12-18T01:18:54;-0.10;73.60
25616;DHT22;13482;48.234;13.006;2022-12-18T01:21:23;-0.10;73.70
25616;DHT22;13482;48.234;13.006;2022-12-18T01:23:55;-0.10;73.70
25616;DHT22;13482;48.234;13.006;2022-12-18T01:26:24;-0.10;73.70
25616;DHT22;13482;48.234;13.006;2022-12-18T01:28:54;-0.10;73.70
25616;DHT22;13482;48.234;13.006;2022-12-18T01:31:26;-0.10;73.90
25616;DHT22;13482;48.234;13.006;2022-12-18T01:33:55;-0.10;73.90
25616;DHT22;13482;48.234;13.006;2022-12-18T01:36:34;-0.10;73.90
25616;DHT22;13482;48.234;13.006;2022-12-18T01:39:08;0.00;73.90
25616;DHT22;13482;48.234;13.006;2022-12-18T01:41:38;0.00;73.70
25616;DHT22;13482;48.234;13.006;2022-12-18T01:50:23;-0.10;73.70
25616;DHT22;13482;48.234;13.006;2022-12-18T01:53:20;-0.10;73.70
25616;DHT22;13482;48.234;13.006;2022-12-18T01:55:49;-0.10;73.70
25616;DHT22;13482;48.234;13.006;2022-12-18T01:58:20;-0.10;73.60
25616;DHT22;13482;48.234;13.006;2022-12-18T02:00:51;-0.10;73.70
25616;DHT22;13482;48.234;13.006;2022-12-18T02:03:18;-0.10;73.60
25616;DHT22;13482;48.234;13.006;2022-12-18T02:06:07;-0.10;73.60
25616;DHT22;13482;48.234;13.006;2022-12-18T02:09:00;-0.10;73.60
25616;DHT22;13482;48.234;13.006;2022-12-18T02:11:49;-0.10;73.60
25616;DHT22;13482;48.234;13.006;2022-12-18T02:14:28;-0.10;73.50
25616;DHT22;13482;48.234;13.006;2022-12-18T02:17:29;-0.10;73.50
25616;DHT22;13482;48.234;13.006;2022-12-18T02:29:06;-0.20;73.60
25616;DHT22;13482;48.234;13.006;2022-12-18T02:31:53;-0.20;73.70
25616;DHT22;13482;48.234;13.006;2022-12-18T02:34:27;-0.20;73.50
25616;DHT22;13482;48.234;13.006;2022-12-18T02:36:58;-0.20;73.50
25616;DHT22;13482;48.234;13.006;2022-12-18T02:39:27;-0.20;73.60
25616;DHT22;13482;48.234;13.006;2022-12-18T02:41:57;-0.20;73.70
25616;DHT22;13482;48.234;13.006;2022-12-18T02:44:25;-0.20;73.60
25616;DHT22;13482;48.234;13.006;2022-12-18T02:46:53;-0.20;73.60
25616;DHT22;13482;48.234;13.006;2022-12-18T02:52:28;-0.20;73.70
25616;DHT22;13482;48.234;13.006;2022-12-18T02:58:47;-0.20;73.80
25616;DHT22;13482;48.234;13.006;2022-12-18T03:04:43;-0.20;73.80
25616;DHT22;13482;48.234;13.006;2022-12-18T03:10:28;-0.20;73.90
25616;DHT22;13482;48.234;13.006;2022-12-18T03:13:12;-0.20;73.90
25616;DHT22;13482;48.234;13.006;2022-12-18T03:15:50;-0.20;73.90
25616;DHT22;13482;48.234;13.006;2022-12-18T03:21:05;-0.20;73.90
25616;DHT22;13482;48.234;13.006;2022-12-18T03:23:36;-0.20;73.90
25616;DHT22;13482;48.234;13.006;2022-12-18T03:26:14;-0.10;73.90
25616;DHT22;13482;48.234;13.006;2022-12-18T03:28:47;-0.10;73.90
25616;DHT22;13482;48.234;13.006;2022-12-18T03:31:18;-0.10;73.70
25616;DHT22;13482;48.234;13.006;2022-12-18T03:33:53;-0.10;73.70
25616;DHT22;13482;48.234;13.006;2022-12-18T03:36:22;-0.10;73.70
25616;DHT22;13482;48.234;13.006;2022-12-18T03:38:51;-0.10;73.60
25616;DHT22;13482;48.234;13.006;2022-12-18T03:41:35;-0.10;73.60
25616;DHT22;13482;48.234;13.006;2022-12-18T03:47:16;-0.10;73.60
25616;DHT22;13482;48.234;13.006;2022-12-18T03:52:22;-0.10;73.60
25616;DHT22;13482;48.234;13.006;2022-12-18T03:54:52;-0.10;73.60
25616;DHT22;13482;48.234;13.006;2022-12-18T03:57:24;-0.10;73.60
25616;DHT22;13482;48.234;13.006;2022-12-18T04:00:09;-0.10;73.60
25616;DHT22;13482;48.234;13.006;2022-12-18T04:02:42;-0.10;73.60
25616;DHT22;13482;48.234;13.006;2022-12-18T04:05:20;-0.10;73.60
25616;DHT22;13482;48.234;13.006;2022-12-18T04:07:50;-0.10;73.60
25616;DHT22;13482;48.234;13.006;2022-12-18T04:10:18;-0.10;73.60
25616;DHT22;13482;48.234;13.006;2022-12-18T04:12:45;-0.10;73.60
25616;DHT22;13482;48.234;13.006;2022-12-18T04:15:13;-0.10;73.60
25616;DHT22;13482;48.234;13.006;2022-12-18T04:17:48;-0.10;73.60
25616;DHT22;13482;48.234;13.006;2022-12-18T04:20:16;-0.10;73.70
25616;DHT22;13482;48.234;13.006;2022-12-18T04:22:44;-0.10;73.70
25616;DHT22;13482;48.234;13.006;2022-12-18T04:25:11;-0.10;73.70
25616;DHT22;13482;48.234;13.006;2022-12-18T04:27:39;-0.10;73.70
25616;DHT22;13482;48.234;13.006;2022-12-18T04:30:06;-0.10;73.70
25616;DHT22;13482;48.234;13.006;2022-12-18T04:32:35;-0.10;73.70
25616;DHT22;13482;48.234;13.006;2022-12-18T04:35:02;-0.10;73.60
25616;DHT22;13482;48.234;13.006;2022-12-18T04:37:30;-0.10;73.60
25616;DHT22;13482;48.234;13.006;2022-12-18T04:39:57;-0.10;73.60
25616;DHT22;13482;48.234;13.006;2022-12-18T04:42:25;-0.10;73.60
25616;DHT22;13482;48.234;13.006;2022-12-18T04:44:52;-0.10;73.60
25616;DHT22;13482;48.234;13.006;2022-12-18T04:47:19;-0.10;73.50
25616;DHT22;13482;48.234;13.006;2022-12-18T04:49:46;-0.10;73.50
25616;DHT22;13482;48.234;13.006;2022-12-18T04:52:13;-0.10;73.50
25616;DHT22;13482;48.234;13.006;2022-12-18T04:54:40;-0.10;73.50
25616;DHT22;13482;48.234;13.006;2022-12-18T04:57:07;-0.10;73.50
25616;DHT22;13482;48.234;13.006;2022-12-18T04:59:34;-0.10;73.50
25616;DHT22;13482;48.234;13.006;2022-12-18T05:02:02;-0.10;73.50
25616;DHT22;13482;48.234;13.006;2022-12-18T05:04:29;-0.10;73.50
25616;DHT22;13482;48.234;13.006;2022-12-18T05:06:56;-0.10;73.50
25616;DHT22;13482;48.234;13.006;2022-12-18T05:09:23;-0.10;73.50
25616;DHT22;13482;48.234;13.006;2022-12-18T05:11:50;-0.10;73.50
25616;DHT22;13482;48.234;13.006;2022-12-18T05:14:18;-0.10;73.50
25616;DHT22;13482;48.234;13.006;2022-12-18T05:16:45;-0.10;73.50
25616;DHT22;13482;48.234;13.006;2022-12-18T05:19:12;-0.10;73.50
25616;DHT22;13482;48.234;13.006;2022-12-18T05:21:39;-0.10;73.50
25616;DHT22;13482;48.234;13.006;2022-12-18T05:24:06;-0.10;73.50
25616;DHT22;13482;48.234;13.006;2022-12-18T05:26:34;-0.10;73.50
25616;DHT22;13482;48.234;13.006;2022-12-18T05:29:01;-0.10;73.50
25616;DHT22;13482;48.234;13.006;2022-12-18T05:31:28;-0.10;73.50
25616;DHT22;13482;48.234;13.006;2022-12-18T05:34:01;-0.10;73.50
25616;DHT22;13482;48.234;13.006;2022-12-18T05:36:28;-0.10;73.50
25616;DHT22;13482;48.234;13.006;2022-12-18T05:38:55;-0.20;73.60
25616;DHT22;13482;48.234;13.006;2022-12-18T05:41:22;-0.20;73.60
25616;DHT22;13482;48.234;13.006;2022-12-18T05:43:49;-0.20;73.60
25616;DHT22;13482;48.234;13.006;2022-12-18T05:46:17;-0.10;73.50
25616;DHT22;13482;48.234;13.006;2022-12-18T05:48:45;-0.20;73.70
25616;DHT22;13482;48.234;13.006;2022-12-18T05:51:15;-0.20;73.70
25616;DHT22;13482;48.234;13.006;2022-12-18T05:53:43;-0.10;73.60
25616;DHT22;13482;48.234;13.006;2022-12-18T05:56:15;-0.20;73.70
25616;DHT22;13482;48.234;13.006;2022-12-18T05:58:44;-0.10;73.60
25616;DHT22;13482;48.234;13.006;2022-12-18T06:01:18;-0.10;73.60
25616;DHT22;13482;48.234;13.006;2022-12-18T06:03:46;-0.10;73.60
25616;DHT22;13482;48.234;13.006;2022-12-18T06:06:20;-0.10;73.60
25616;DHT22;13482;48.234;13.006;2022-12-18T06:08:52;-0.10;73.60
25616;DHT22;13482;48.234;13.006;2022-12-18T06:11:22;-0.10;73.60
25616;DHT22;13482;48.234;13.006;2022-12-18T06:13:51;-0.10;73.60
25616;DHT22;13482;48.234;13.006;2022-12-18T06:16:25;-0.10;73.50
25616;DHT22;13482;48.234;13.006;2022-12-18T06:18:53;-0.10;73.50
25616;DHT22;13482;48.234;13.006;2022-12-18T06:21:22;-0.10;73.40
25616;DHT22;13482;48.234;13.006;2022-12-18T06:23:49;-0.10;73.40
25616;DHT22;13482;48.234;13.006;2022-12-18T06:26:16;-0.20;73.50
25616;DHT22;13482;48.234;13.006;2022-12-18T06:28:48;-0.20;73.50
25616;DHT22;13482;48.234;13.006;2022-12-18T06:31:16;-0.20;73.50
25616;DHT22;13482;48.234;13.006;2022-12-18T06:33:43;-0.20;73.50
25616;DHT22;13482;48.234;13.006;2022-12-18T06:36:12;-0.20;73.50
25616;DHT22;13482;48.234;13.006;2022-12-18T06:38:41;-0.20;73.50
25616;DHT22;13482;48.234;13.006;2022-12-18T06:41:13;-0.20;73.50
25616;DHT22;13482;48.234;13.006;2022-12-18T06:43:42;-0.20;73.60
25616;DHT22;13482;48.234;13.006;2022-12-18T06:46:11;-0.20;73.60
25616;DHT22;13482;48.234;13.006;2022-12-18T06:48:38;-0.20;73.60
25616;DHT22;13482;48.234;13.006;2022-12-18T06:51:06;-0.20;73.60
25616;DHT22;13482;48.234;13.006;2022-12-18T06:53:35;-0.30;73.60
25616;DHT22;13482;48.234;13.006;2022-12-18T06:56:05;-0.30;73.70
25616;DHT22;13482;48.234;13.006;2022-12-18T06:58:38;-0.30;73.70
25616;DHT22;13482;48.234;13.006;2022-12-18T07:01:10;-0.30;73.70
25616;DHT22;13482;48.234;13.006;2022-12-18T07:03:39;-0.20;73.70
25616;DHT22;13482;48.234;13.006;2022-12-18T07:06:16;-0.20;73.70
25616;DHT22;13482;48.234;13.006;2022-12-18T07:08:54;-0.20;73.70
25616;DHT22;13482;48.234;13.006;2022-12-18T07:11:22;-0.20;73.70
25616;DHT22;13482;48.234;13.006;2022-12-18T07:13:49;-0.20;73.70
25616;DHT22;13482;48.234;13.006;2022-12-18T07:16:18;-0.20;73.70
25616;DHT22;13482;48.234;13.006;2022-12-18T07:18:51;-0.20;73.80
25616;DHT22;13482;48.234;13.006;2022-12-18T07:21:20;-0.20;73.80
25616;DHT22;13482;48.234;13.006;2022-12-18T07:23:49;-0.20;73.80
25616;DHT22;13482;48.234;13.006;2022-12-18T07:26:18;-0.10;73.70
25616;DHT22;13482;48.234;13.006;2022-12-18T07:28:46;-0.10;73.70
25616;DHT22;13482;48.234;13.006;2022-12-18T07:31:18;-0.10;73.70
25616;DHT22;13482;48.234;13.006;2022-12-18T07:33:47;-0.10;73.70
25616;DHT22;13482;48.234;13.006;2022-12-18T07:36:14;-0.10;73.70
25616;DHT22;13482;48.234;13.006;2022-12-18T07:38:52;-0.10;73.70
25616;DHT22;13482;48.234;13.006;2022-12-18T07:41:20;-0.10;73.70
25616;DHT22;13482;48.234;13.006;2022-12-18T07:43:47;-0.10;73.70
25616;DHT22;13482;48.234;13.006;2022-12-18T07:46:15;-0.10;73.70
25616;DHT22;13482;48.234;13.006;2022-12-18T07:48:45;-0.10;73.70
25616;DHT22;13482;48.234;13.006;2022-12-18T07:51:16;-0.10;73.70
25616;DHT22;13482;48.234;13.006;2022-12-18T07:53:45;-0.10;73.70
25616;DHT22;13482;48.234;13.006;2022-12-18T07:56:16;-0.10;73.60
25616;DHT22;13482;48.234;13.006;2022-12-18T07:58:53;-0.10;73.60
25616;DHT22;13482;48.234;13.006;2022-12-18T08:01:20;-0.10;73.60
25616;DHT22;13482;48.234;13.006;2022-12-18T08:03:49;0.00;73.60
25616;DHT22;13482;48.234;13.006;2022-12-18T08:06:18;0.00;73.60
25616;DHT22;13482;48.234;13.006;2022-12-18T08:08:58;0.00;73.70
25616;DHT22;13482;48.234;13.006;2022-12-18T08:11:27;0.00;73.70
25616;DHT22;13482;48.234;13.006;2022-12-18T08:13:55;0.00;73.70
25616;DHT22;13482;48.234;13.006;2022-12-18T08:16:23;0.00;73.70
25616;DHT22;13482;48.234;13.006;2022-12-18T08:18:52;0.10;73.70
25616;DHT22;13482;48.234;13.006;2022-12-18T08:21:29;0.10;73.70
25616;DHT22;13482;48.234;13.006;2022-12-18T08:23:59;0.10;73.70
25616;DHT22;13482;48.234;13.006;2022-12-18T08:26:29;0.10;73.70
25616;DHT22;13482;48.234;13.006;2022-12-18T08:29:05;0.10;73.60
25616;DHT22;13482;48.234;13.006;2022-12-18T08:31:34;0.20;73.60
25616;DHT22;13482;48.234;13.006;2022-12-18T08:34:07;0.20;73.60
25616;DHT22;13482;48.234;13.006;2022-12-18T08:36:35;0.20;73.60
25616;DHT22;13482;48.234;13.006;2022-12-18T08:39:02;0.20;73.70
25616;DHT22;13482;48.234;13.006;2022-12-18T08:41:29;0.20;73.80
25616;DHT22;13482;48.234;13.006;2022-12-18T08:43:59;0.30;73.90
25616;DHT22;13482;48.234;13.006;2022-12-18T08:46:45;0.30;73.90
25616;DHT22;13482;48.234;13.006;2022-12-18T08:49:12;0.40;73.90
25616;DHT22;13482;48.234;13.006;2022-12-18T08:51:39;0.40;73.80
25616;DHT22;13482;48.234;13.006;2022-12-18T08:54:11;0.40;73.80
25616;DHT22;13482;48.234;13.006;2022-12-18T08:56:45;0.50;73.60
25616;DHT22;13482;48.234;13.006;2022-12-18T08:59:17;0.50;73.60
25616;DHT22;13482;48.234;13.006;2022-12-18T09:01:46;0.60;73.50
25616;DHT22;13482;48.234;13.006;2022-12-18T09:04:14;0.60;73.40
25616;DHT22;13482;48.234;13.006;2022-12-18T09:06:42;0.60;73.50
25616;DHT22;13482;48.234;13.006;2022-12-18T09:09:09;0.60;73.60
25616;DHT22;13482;48.234;13.006;2022-12-18T09:11:37;0.70;73.60
25616;DHT22;13482;48.234;13.006;2022-12-18T09:14:05;0.70;73.60
25616;DHT22;13482;48.234;13.006;2022-12-18T09:16:33;0.70;73.50
25616;DHT22;13482;48.234;13.006;2022-12-18T09:19:03;0.80;73.20
25616;DHT22;13482;48.234;13.006;2022-12-18T09:21:33;0.80;73.00
25616;DHT22;13482;48.234;13.006;2022-12-18T09:24:04;0.80;72.90
25616;DHT22;13482;48.234;13.006;2022-12-18T09:26:35;0.80;73.00
25616;DHT22;13482;48.234;13.006;2022-12-18T09:29:03;0.80;73.00
25616;DHT22;13482;48.234;13.006;2022-12-18T09:31:31;0.80;73.00
25616;DHT22;13482;48.234;13.006;2022-12-18T09:33:58;0.80;73.20
25616;DHT22;13482;48.234;13.006;2022-12-18T09:36:25;0.90;73.40
25616;DHT22;13482;48.234;13.006;2022-12-18T09:38:55;1.00;73.50
25616;DHT22;13482;48.234;13.006;2022-12-18T09:41:44;1.10;73.70
25616;DHT22;13482;48.234;13.006;2022-12-18T09:47:04;1.20;73.70
25616;DHT22;13482;48.234;13.006;2022-12-18T09:50:13;1.30;73.80
25616;DHT22;13482;48.234;13.006;2022-12-18T09:53:04;1.40;73.80
25616;DHT22;13482;48.234;13.006;2022-12-18T09:55:40;1.50;73.60
25616;DHT22;13482;48.234;13.006;2022-12-18T10:00:36;1.70;73.20
25616;DHT22;13482;48.234;13.006;2022-12-18T10:03:10;1.70;73.00
25616;DHT22;13482;48.234;13.006;2022-12-18T10:05:54;1.80;73.10
25616;DHT22;13482;48.234;13.006;2022-12-18T10:08:49;1.80;73.00
25616;DHT22;13482;48.234;13.006;2022-12-18T10:14:33;1.90;72.80
25616;DHT22;13482;48.234;13.006;2022-12-18T10:17:51;2.00;72.70
25616;DHT22;13482;48.234;13.006;2022-12-18T10:23:33;2.10;72.80
25616;DHT22;13482;48.234;13.006;2022-12-18T10:26:14;2.20;72.60
25616;DHT22;13482;48.234;13.006;2022-12-18T10:28:42;2.20;72.80
25616;DHT22;13482;48.234;13.006;2022-12-18T10:31:17;2.30;72.70
25616;DHT22;13482;48.234;13.006;2022-12-18T10:33:46;2.30;72.80
25616;DHT22;13482;48.234;13.006;2022-12-18T10:36:13;2.40;72.50
25616;DHT22;13482;48.234;13.006;2022-12-18T10:38:41;2.40;72.40
25616;DHT22;13482;48.234;13.006;2022-12-18T10:44:23;2.50;72.30
25616;DHT22;13482;48.234;13.006;2022-12-18T10:47:03;2.60;72.10
25616;DHT22;13482;48.234;13.006;2022-12-18T10:49:50;2.60;72.30
25616;DHT22;13482;48.234;13.006;2022-12-18T10:52:23;2.70;72.40
25616;DHT22;13482;48.234;13.006;2022-12-18T10:55:05;2.70;72.30
25616;DHT22;13482;48.234;13.006;2022-12-18T11:00:22;2.80;72.30
25616;DHT22;13482;48.234;13.006;2022-12-18T11:02:52;2.90;72.00
25616;DHT22;13482;48.234;13.006;2022-12-18T11:08:02;3.00;72.00
25616;DHT22;13482;48.234;13.006;2022-12-18T11:10:33;3.10;72.00
25616;DHT22;13482;48.234;13.006;2022-12-18T11:13:24;3.10;71.90
25616;DHT22;13482;48.234;13.006;2022-12-18T11:15:53;3.20;71.60
25616;DHT22;13482;48.234;13.006;2022-12-18T11:18:29;3.10;71.60
25616;DHT22;13482;48.234;13.006;2022-12-18T11:23:35;3.20;71.50
25616;DHT22;13482;48.234;13.006;2022-12-18T11:26:04;3.20;71.40
25616;DHT22;13482;48.234;13.006;2022-12-18T11:28:43;3.20;71.30
25616;DHT22;13482;48.234;13.006;2022-12-18T11:31:26;3.30;71.30
25616;DHT22;13482;48.234;13.006;2022-12-18T11:36:49;3.30;70.50
25616;DHT22;13482;48.234;13.006;2022-12-18T11:41:58;3.30;71.10
25616;DHT22;13482;48.234;13.006;2022-12-18T11:44:44;3.30;71.10
25616;DHT22;13482;48.234;13.006;2022-12-18T11:50:31;3.30;71.00
25616;DHT22;13482;48.234;13.006;2022-12-18T11:53:19;3.40;71.00
25616;DHT22;13482;48.234;13.006;2022-12-18T11:55:49;3.30;71.30
25616;DHT22;13482;48.234;13.006;2022-12-18T12:04:15;3.40;71.30
25616;DHT22;13482;48.234;13.006;2022-12-18T12:28:19;3.80;71.10
25616;DHT22;13482;48.234;13.006;2022-12-18T12:34:00;3.80;70.90
25616;DHT22;13482;48.234;13.006;2022-12-18T12:39:47;3.80;70.90
25616;DHT22;13482;48.234;13.006;2022-12-18T12:42:23;3.80;70.80
25616;DHT22;13482;48.234;13.006;2022-12-18T12:45:21;3.80;70.80
25616;DHT22;13482;48.234;13.006;2022-12-18T12:47:56;3.80;70.80
25616;DHT22;13482;48.234;13.006;2022-12-18T12:50:25;3.80;70.80
25616;DHT22;13482;48.234;13.006;2022-12-18T12:52:55;3.80;70.70
25616;DHT22;13482;48.234;13.006;2022-12-18T12:55:28;3.90;70.70
25616;DHT22;13482;48.234;13.006;2022-12-18T13:01:01;3.90;70.60
25616;DHT22;13482;48.234;13.006;2022-12-18T13:06:56;3.90;70.10
25616;DHT22;13482;48.234;13.006;2022-12-18T13:09:34;3.90;70.60
25616;DHT22;13482;48.234;13.006;2022-12-18T13:12:08;3.90;70.40
25616;DHT22;13482;48.234;13.006;2022-12-18T13:15:21;3.90;70.30
25616;DHT22;13482;48.234;13.006;2022-12-18T13:23:34;3.90;70.30
25616;DHT22;13482;48.234;13.006;2022-12-18T13:34:26;3.90;70.30
25616;DHT22;13482;48.234;13.006;2022-12-18T13:37:40;3.90;70.10
25616;DHT22;13482;48.234;13.006;2022-12-18T13:41:24;3.90;70.10
25616;DHT22;13482;48.234;13.006;2022-12-18T13:43:43;3.90;70.20
25616;DHT22;13482;48.234;13.006;2022-12-18T13:49:17;4.00;70.70
25616;DHT22;13482;48.234;13.006;2022-12-18T13:51:52;4.10;70.70
25616;DHT22;13482;48.234;13.006;2022-12-18T13:54:35;4.20;70.90
25616;DHT22;13482;48.234;13.006;2022-12-18T13:57:04;4.30;71.00
25616;DHT22;13482;48.234;13.006;2022-12-18T13:59:38;4.40;71.20
25616;DHT22;13482;48.234;13.006;2022-12-18T14:02:15;4.50;71.10
25616;DHT22;13482;48.234;13.006;2022-12-18T14:04:48;4.60;70.70
25616;DHT22;13482;48.234;13.006;2022-12-18T14:12:50;4.90;70.60
25616;DHT22;13482;48.234;13.006;2022-12-18T14:15:39;4.90;70.00
25616;DHT22;13482;48.234;13.006;2022-12-18T14:20:59;4.80;69.10
25616;DHT22;13482;48.234;13.006;2022-12-18T14:23:36;4.80;68.90
25616;DHT22;13482;48.234;13.006;2022-12-18T14:26:27;4.70;68.70
25616;DHT22;13482;48.234;13.006;2022-12-18T14:28:57;4.60;68.10
25616;DHT22;13482;48.234;13.006;2022-12-18T14:31:31;4.50;68.50
25616;DHT22;13482;48.234;13.006;2022-12-18T14:33:58;4.40;68.30
25616;DHT22;13482;48.234;13.006;2022-12-18T14:36:29;4.30;68.10
25616;DHT22;13482;48.234;13.006;2022-12-18T14:38:57;4.20;67.90
25616;DHT22;13482;48.234;13.006;2022-12-18T14:41:30;4.00;67.70
25616;DHT22;13482;48.234;13.006;2022-12-18T14:44:05;3.90;67.60
25616;DHT22;13482;48.234;13.006;2022-12-18T14:46:39;3.80;67.50
25616;DHT22;13482;48.234;13.006;2022-12-18T14:49:32;3.60;67.60
25616;DHT22;13482;48.234;13.006;2022-12-18T14:52:03;3.50;67.40
25616;DHT22;13482;48.234;13.006;2022-12-18T14:54:35;3.30;67.50
25616;DHT22;13482;48.234;13.006;2022-12-18T14:57:12;3.10;67.40
25616;DHT22;13482;48.234;13.006;2022-12-18T14:59:41;3.00;67.50
25616;DHT22;13482;48.234;13.006;2022-12-18T15:02:23;2.80;67.50
25616;DHT22;13482;48.234;13.006;2022-12-18T15:05:20;2.70;67.30
25616;DHT22;13482;48.234;13.006;2022-12-18T15:07:51;2.50;67.00
25616;DHT22;13482;48.234;13.006;2022-12-18T15:10:21;2.30;67.30
25616;DHT22;13482;48.234;13.006;2022-12-18T15:13:07;2.20;67.40
25616;DHT22;13482;48.234;13.006;2022-12-18T15:18:19;1.90;67.50
25616;DHT22;13482;48.234;13.006;2022-12-18T15:20:59;1.70;67.50
25616;DHT22;13482;48.234;13.006;2022-12-18T15:23:47;1.60;67.60
25616;DHT22;13482;48.234;13.006;2022-12-18T15:26:21;1.50;67.70
25616;DHT22;13482;48.234;13.006;2022-12-18T15:28:55;1.30;67.80
25616;DHT22;13482;48.234;13.006;2022-12-18T15:31:32;1.20;67.90
25616;DHT22;13482;48.234;13.006;2022-12-18T15:36:42;1.00;67.90
25616;DHT22;13482;48.234;13.006;2022-12-18T15:39:12;0.80;68.10
25616;DHT22;13482;48.234;13.006;2022-12-18T15:41:39;0.80;68.20
25616;DHT22;13482;48.234;13.006;2022-12-18T15:44:23;0.70;68.30
25616;DHT22;13482;48.234;13.006;2022-12-18T15:46:52;0.60;68.30
25616;DHT22;13482;48.234;13.006;2022-12-18T15:49:19;0.50;68.40
25616;DHT22;13482;48.234;13.006;2022-12-18T15:51:51;0.40;68.50
25616;DHT22;13482;48.234;13.006;2022-12-18T15:54:21;0.30;68.60
25616;DHT22;13482;48.234;13.006;2022-12-18T15:57:11;0.20;68.60
25616;DHT22;13482;48.234;13.006;2022-12-18T15:59:51;0.10;68.60
25616;DHT22;13482;48.234;13.006;2022-12-18T16:02:21;0.10;68.60
25616;DHT22;13482;48.234;13.006;2022-12-18T16:04:54;0.00;68.70
25616;DHT22;13482;48.234;13.006;2022-12-18T16:07:21;-0.10;68.70
25616;DHT22;13482;48.234;13.006;2022-12-18T16:09:50;-0.20;68.80
25616;DHT22;13482;48.234;13.006;2022-12-18T16:12:22;-0.20;68.80
25616;DHT22;13482;48.234;13.006;2022-12-18T16:14:51;-0.30;68.90
25616;DHT22;13482;48.234;13.006;2022-12-18T16:17:20;-0.30;68.90
25616;DHT22;13482;48.234;13.006;2022-12-18T16:19:47;-0.40;68.90
25616;DHT22;13482;48.234;13.006;2022-12-18T16:24:48;-0.50;68.90
25616;DHT22;13482;48.234;13.006;2022-12-18T16:27:16;-0.60;68.90
25616;DHT22;13482;48.234;13.006;2022-12-18T16:29:44;-0.60;68.90
25616;DHT22;13482;48.234;13.006;2022-12-18T16:32:14;-0.70;68.90
25616;DHT22;13482;48.234;13.006;2022-12-18T16:34:45;-0.70;68.90
25616;DHT22;13482;48.234;13.006;2022-12-18T16:37:14;-0.80;68.90
25616;DHT22;13482;48.234;13.006;2022-12-18T16:39:42;-0.80;69.00
25616;DHT22;13482;48.234;13.006;2022-12-18T16:42:17;-0.90;69.00
25616;DHT22;13482;48.234;13.006;2022-12-18T16:44:47;-0.90;69.00
25616;DHT22;13482;48.234;13.006;2022-12-18T16:47:16;-1.00;69.00
25616;DHT22;13482;48.234;13.006;2022-12-18T16:49:45;-1.00;69.00
25616;DHT22;13482;48.234;13.006;2022-12-18T16:52:14;-1.10;69.10
25616;DHT22;13482;48.234;13.006;2022-12-18T16:54:43;-1.10;69.10
25616;DHT22;13482;48.234;13.006;2022-12-18T16:57:13;-1.20;69.10
25616;DHT22;13482;48.234;13.006;2022-12-18T16:59:42;-1.20;69.20
25616;DHT22;13482;48.234;13.006;2022-12-18T17:02:18;-1.30;69.20
25616;DHT22;13482;48.234;13.006;2022-12-18T17:04:52;-1.30;69.30
25616;DHT22;13482;48.234;13.006;2022-12-18T17:07:20;-1.30;69.30
25616;DHT22;13482;48.234;13.006;2022-12-18T17:09:47;-1.40;69.30
25616;DHT22;13482;48.234;13.006;2022-12-18T17:12:17;-1.40;69.30
25616;DHT22;13482;48.234;13.006;2022-12-18T17:14:46;-1.50;69.30
25616;DHT22;13482;48.234;13.006;2022-12-18T17:17:16;-1.50;69.40
25616;DHT22;13482;48.234;13.006;2022-12-18T17:19:50;-1.50;69.50
25616;DHT22;13482;48.234;13.006;2022-12-18T17:22:19;-1.50;69.50
25616;DHT22;13482;48.234;13.006;2022-12-18T17:24:46;-1.60;69.60
25616;DHT22;13482;48.234;13.006;2022-12-18T17:27:14;-1.60;69.60
25616;DHT22;13482;48.234;13.006;2022-12-18T17:29:41;-1.60;69.70
25616;DHT22;13482;48.234;13.006;2022-12-18T17:32:16;-1.70;69.80
25616;DHT22;13482;48.234;13.006;2022-12-18T17:34:45;-1.70;69.80
25616;DHT22;13482;48.234;13.006;2022-12-18T17:37:16;-1.70;69.80
25616;DHT22;13482;48.234;13.006;2022-12-18T17:39:44;-1.70;69.90
25616;DHT22;13482;48.234;13.006;2022-12-18T17:42:12;-1.80;69.90
25616;DHT22;13482;48.234;13.006;2022-12-18T17:44:42;-1.80;69.90
25616;DHT22;13482;48.234;13.006;2022-12-18T17:47:12;-1.80;69.90
25616;DHT22;13482;48.234;13.006;2022-12-18T17:49:40;-1.90;70.00
25616;DHT22;13482;48.234;13.006;2022-12-18T17:52:14;-1.90;70.00
25616;DHT22;13482;48.234;13.006;2022-12-18T17:54:45;-1.90;70.10
25616;DHT22;13482;48.234;13.006;2022-12-18T17:57:15;-1.90;70.20
25616;DHT22;13482;48.234;13.006;2022-12-18T17:59:42;-2.00;70.30
25616;DHT22;13482;48.234;13.006;2022-12-18T18:02:10;-2.00;70.30
25616;DHT22;13482;48.234;13.006;2022-12-18T18:04:38;-2.00;70.50
25616;DHT22;13482;48.234;13.006;2022-12-18T18:07:05;-2.00;70.60
25616;DHT22;13482;48.234;13.006;2022-12-18T18:09:32;-2.00;70.70
25616;DHT22;13482;48.234;13.006;2022-12-18T18:11:59;-2.00;70.70
25616;DHT22;13482;48.234;13.006;2022-12-18T18:14:48;-2.00;70.80
25616;DHT22;13482;48.234;13.006;2022-12-18T18:17:16;-2.00;70.80